Time;durP1;ratioP1;P1;durP2;ratioP2;P2;SDS_P1;SDS_P2;PMS_P1;PMS_P2;Temp;Humidity;BMP_temperature;BMP_pressure;BME280_temperature;BME280_humidity;BME280_pressure;Samples;Min_cycle;Max_cycle;Signal;HPM_P1;HPM_P2
2024/01/12 00:00:43;;;;;;;3.30;1.30;;;;;;;-5.71;62.36;98689.77;108742;1264;73329;-26
2024/01/12 00:03:11;;;;;;;7.10;1.80;;;;;;;-5.72;62.95;98698.90;108732;1264;71436;-26
2024/01/12 00:05:38;;;;;;;6.20;2.90;;;;;;;-5.66;63.16;98707.73;108738;1264;60132;-26
2024/01/12 00:08:06;;;;;;;9.00;4.70;;;;;;;-5.79;63.34;98711.56;108710;1266;58784;-26
2024/01/12 00:10:33;;;;;;;5.80;3.00;;;;;;;-5.75;62.87;98718.91;108725;1264;71833;-26
2024/01/12 00:13:01;;;;;;;3.50;1.50;;;;;;;-5.92;63.75;98716.23;108746;1265;73050;-26
2024/01/12 00:15:28;;;;;;;4.10;2.00;;;;;;;-5.97;63.98;98727.32;108736;1264;71441;-26
2024/01/12 00:17:55;;;;;;;7.80;3.50;;;;;;;-5.89;64.48;98728.67;108730;1263;58771;-26
2024/01/12 00:20:23;;;;;;;6.50;4.00;;;;;;;-6.06;64.44;98724.29;108742;1264;59227;-26
2024/01/12 00:22:51;;;;;;;6.40;3.70;;;;;;;-6.04;64.10;98743.68;108729;1263;73073;-26
2024/01/12 00:25:18;;;;;;;5.60;2.90;;;;;;;-6.02;63.43;98748.52;108754;1263;73145;-26
2024/01/12 00:27:45;;;;;;;7.40;4.40;;;;;;;-5.83;63.33;98751.55;108724;1263;72921;-26
2024/01/12 00:30:13;;;;;;;8.30;4.60;;;;;;;-5.96;62.81;98755.69;107954;1263;1002359;-26
2024/01/12 00:32:40;;;;;;;9.40;5.10;;;;;;;-6.28;61.91;98746.16;108742;1263;59773;-26
2024/01/12 00:35:08;;;;;;;13.90;6.20;;;;;;;-6.03;61.68;98755.48;108720;1265;73085;-26
2024/01/12 00:37:36;;;;;;;5.90;2.70;;;;;;;-6.17;59.99;98755.41;108744;1263;73307;-26
2024/01/12 00:40:04;;;;;;;6.40;2.90;;;;;;;-6.22;59.03;98763.96;108721;1263;72484;-26
2024/01/12 00:42:32;;;;;;;3.90;2.10;;;;;;;-6.30;58.21;98757.34;108681;1263;60031;-26
2024/01/12 00:44:59;;;;;;;2.20;1.40;;;;;;;-6.19;58.18;98764.42;108726;1263;59119;-26
2024/01/12 00:47:26;;;;;;;2.60;1.70;;;;;;;-6.18;57.60;98767.44;108744;1263;70484;-26
2024/01/12 00:49:54;;;;;;;2.40;1.60;;;;;;;-6.17;57.96;98765.56;108750;1263;74314;-26
2024/01/12 00:52:21;;;;;;;2.80;1.40;;;;;;;-6.06;57.60;98776.52;108720;1263;71413;-26
2024/01/12 00:54:49;;;;;;;2.20;1.20;;;;;;;-6.29;57.48;98772.69;108730;1263;60055;-26
2024/01/12 00:57:16;;;;;;;2.30;1.40;;;;;;;-6.26;56.92;98770.96;108760;1263;58897;-26
2024/01/12 00:59:44;;;;;;;6.70;1.60;;;;;;;-6.40;56.75;98775.42;108756;1263;73060;-26
2024/01/12 01:02:11;;;;;;;3.60;1.80;;;;;;;-6.60;57.11;98785.19;108728;1263;74288;-26
2024/01/12 01:04:39;;;;;;;5.10;1.90;;;;;;;-6.67;57.30;98789.02;108699;1263;72619;-26
2024/01/12 01:07:06;;;;;;;10.40;1.50;;;;;;;-6.63;57.04;98792.84;108718;1266;60153;-26
2024/01/12 01:09:34;;;;;;;2.50;1.20;;;;;;;-6.78;57.57;98797.63;108757;1263;58681;-26
2024/01/12 01:12:01;;;;;;;3.80;1.30;;;;;;;-6.50;57.08;98804.95;108744;1263;71821;-26
2024/01/12 01:14:29;;;;;;;2.70;1.30;;;;;;;-6.05;55.51;98807.25;108753;1263;73397;-26
2024/01/12 01:16:56;;;;;;;3.40;1.40;;;;;;;-5.90;55.04;98804.78;108735;1263;72323;-26
2024/01/12 01:19:24;;;;;;;3.20;1.40;;;;;;;-6.33;54.90;98807.73;108738;1263;59247;-27
2024/01/12 01:21:51;;;;;;;2.30;1.00;;;;;;;-6.31;54.84;98815.99;108747;1263;58865;-27
2024/01/12 01:24:19;;;;;;;2.00;1.30;;;;;;;-6.59;54.57;98820.30;108725;1264;71993;-26
2024/01/12 01:26:46;;;;;;;1.80;1.20;;;;;;;-6.82;54.32;98823.35;108703;1264;73173;-26
2024/01/12 01:29:14;;;;;;;1.30;0.90;;;;;;;-6.89;54.21;98833.58;108710;1264;72691;-26
2024/01/12 01:31:41;;;;;;;6.70;1.60;;;;;;;-7.01;53.85;98834.09;108701;1264;58847;-26
2024/01/12 01:34:08;;;;;;;3.00;1.40;;;;;;;-7.14;54.45;98838.96;108701;1264;60180;-26
2024/01/12 01:36:36;;;;;;;1.40;1.00;;;;;;;-7.29;54.55;98840.84;108724;1264;71837;-26
2024/01/12 01:39:04;;;;;;;3.40;1.10;;;;;;;-7.32;54.68;98846.95;108720;1264;74306;-26
2024/01/12 01:41:31;;;;;;;1.40;0.80;;;;;;;-7.22;53.91;98852.57;108703;1264;72652;-26
2024/01/12 01:43:58;;;;;;;3.30;1.80;;;;;;;-6.69;52.81;98861.33;108742;1264;58851;-26
2024/01/12 01:46:26;;;;;;;2.70;1.20;;;;;;;-6.64;52.54;98861.24;108722;1264;60056;-27
2024/01/12 01:48:54;;;;;;;1.80;1.30;;;;;;;-6.70;52.30;98862.02;108669;1264;72111;-26
2024/01/12 01:51:21;;;;;;;2.50;1.70;;;;;;;-7.12;53.12;98862.73;108704;1268;74312;-26
2024/01/12 01:53:49;;;;;;;2.20;0.90;;;;;;;-7.32;53.34;98867.52;108675;1264;72664;-26
2024/01/12 01:56:17;;;;;;;2.50;1.30;;;;;;;-7.37;53.93;98872.83;108662;1264;60026;-26
2024/01/12 01:58:45;;;;;;;5.30;2.30;;;;;;;-7.60;53.79;98873.91;108698;1264;60017;-26
2024/01/12 02:01:12;;;;;;;3.10;2.20;;;;;;;-7.54;53.83;98884.13;108697;1264;73148;-26
2024/01/12 02:03:40;;;;;;;8.80;2.70;;;;;;;-7.73;54.16;98890.90;108681;1264;72850;-26
2024/01/12 02:06:07;;;;;;;4.40;1.70;;;;;;;-7.77;54.25;98887.39;108759;1264;72803;-26
2024/01/12 02:08:35;;;;;;;13.90;3.30;;;;;;;-7.11;53.04;98889.38;108570;1264;59293;-26
2024/01/12 02:11:03;;;;;;;8.80;3.30;;;;;;;-6.67;51.51;98890.67;108689;1264;60051;-26
2024/01/12 02:13:30;;;;;;;8.90;3.60;;;;;;;-6.81;51.26;98894.41;108682;1264;73070;-27
2024/01/12 02:15:58;;;;;;;25.50;8.20;;;;;;;-7.13;52.03;98896.85;108718;1266;74344;-26
2024/01/12 02:18:26;;;;;;;55.90;19.50;;;;;;;-7.33;52.22;98901.12;108566;1264;71469;-26
2024/01/12 02:20:57;;;;;;;26.50;6.60;;;;;;;-7.38;52.35;98904.38;108707;1265;60049;-26
2024/01/12 02:23:24;;;;;;;50.50;18.40;;;;;;;-7.63;53.07;98910.70;108663;1266;60022;-26
2024/01/12 02:25:52;;;;;;;71.30;27.00;;;;;;;-7.64;53.00;98907.51;107948;1266;1002199;-26
2024/01/12 02:28:19;;;;;;;25.40;9.70;;;;;;;-7.80;53.72;98910.52;108542;1264;74348;-26
2024/01/12 02:30:47;;;;;;;73.30;23.50;;;;;;;-7.52;52.76;98917.00;108677;1264;72474;-26
2024/01/12 02:33:15;;;;;;;80.00;28.90;;;;;;;-6.96;51.74;98918.41;108682;1266;59220;-27
2024/01/12 02:35:43;;;;;;;137.60;49.20;;;;;;;-6.74;51.01;98923.54;108713;1264;60189;-26
2024/01/12 02:38:10;;;;;;;52.20;19.50;;;;;;;-6.70;50.62;98926.35;109420;1253;73023;-26
2024/01/12 02:40:38;;;;;;;19.60;7.90;;;;;;;-6.87;51.01;98929.45;109429;1253;74343;-27
2024/01/12 02:43:05;;;;;;;14.90;5.60;;;;;;;-7.07;51.38;98935.75;109386;1257;72708;-26
2024/01/12 02:45:33;;;;;;;31.00;13.40;;;;;;;-7.46;52.36;98940.55;109411;1254;58832;-26
2024/01/12 02:48:00;;;;;;;10.40;5.10;;;;;;;-7.84;53.06;98941.74;109446;1253;59993;-26
2024/01/12 02:50:28;;;;;;;3.50;1.20;;;;;;;-8.11;54.05;98953.89;109404;1253;73003;-26
2024/01/12 02:52:56;;;;;;;3.60;1.40;;;;;;;-8.04;53.93;98959.25;109411;1253;74774;-26
2024/01/12 02:55:23;;;;;;;5.90;1.50;;;;;;;-7.46;52.68;98961.46;109445;1253;72462;-27
2024/01/12 02:57:51;;;;;;;3.80;1.30;;;;;;;-7.50;52.25;98964.20;109410;1253;58762;-26
2024/01/12 03:00:19;;;;;;;2.70;1.00;;;;;;;-7.81;52.91;98966.67;109451;1253;59966;-27
2024/01/12 03:02:46;;;;;;;0.70;0.60;;;;;;;-7.99;53.68;98967.48;109413;1257;71779;-26
2024/01/12 03:05:14;;;;;;;1.40;0.90;;;;;;;-8.06;53.90;98969.55;109441;1253;74315;-26
2024/01/12 03:07:41;;;;;;;1.90;0.80;;;;;;;-8.30;54.22;98966.66;109272;1254;72667;-27
2024/01/12 03:10:09;;;;;;;5.80;1.20;;;;;;;-8.61;55.28;98967.87;109447;1253;59292;-26
2024/01/12 03:12:36;;;;;;;0.40;0.40;;;;;;;-8.50;55.29;98975.37;109276;1253;60030;-26
2024/01/12 03:15:04;;;;;;;0.50;0.50;;;;;;;-7.69;53.53;98972.63;109436;1253;71771;-27
2024/01/12 03:17:32;;;;;;;1.40;0.80;;;;;;;-7.40;52.41;98975.41;109299;1257;74288;-27
2024/01/12 03:20:00;;;;;;;4.30;0.60;;;;;;;-7.59;52.62;98979.13;109396;1253;72637;-26
2024/01/12 03:22:29;;;;;;;1.20;0.70;;;;;;;-7.81;53.48;98982.16;109390;1254;58797;-27
2024/01/12 03:24:56;;;;;;;1.20;0.90;;;;;;;-8.29;54.54;98983.83;109349;1258;59985;-26
2024/01/12 03:27:24;;;;;;;1.70;0.90;;;;;;;-8.56;55.50;98989.05;109226;1253;72550;-26
2024/01/12 03:29:51;;;;;;;0.80;0.60;;;;;;;-8.96;56.77;98987.88;109316;1253;73219;-26
2024/01/12 03:32:20;;;;;;;1.80;0.80;;;;;;;-8.83;57.14;98992.20;109308;1254;71568;-26
2024/01/12 03:34:48;;;;;;;3.80;1.40;;;;;;;-8.36;56.11;98991.46;109104;1255;58827;-27
2024/01/12 03:37:15;;;;;;;1.80;1.20;;;;;;;-8.31;55.65;98992.10;109326;1254;60031;-27
2024/01/12 03:39:43;;;;;;;4.10;1.50;;;;;;;-8.37;56.01;98992.66;109352;1254;73827;-26
2024/01/12 03:42:11;;;;;;;4.50;1.90;;;;;;;-8.57;56.28;98996.30;109353;1253;73229;-26
2024/01/12 03:44:38;;;;;;;2.70;1.40;;;;;;;-8.76;56.58;99000.60;109409;1256;72508;-26
2024/01/12 03:47:05;;;;;;;1.80;1.20;;;;;;;-9.13;57.48;99005.59;109331;1253;60079;-26
2024/01/12 03:49:33;;;;;;;1.40;0.90;;;;;;;-9.34;58.22;99010.16;109208;1253;58748;-26
2024/01/12 03:52:01;;;;;;;1.50;0.80;;;;;;;-8.63;56.66;99018.55;109245;1253;73917;-27
2024/01/12 03:54:42;;;;;;;1.80;0.60;;;;;;;-8.33;55.71;99021.92;109255;1254;72975;-27
2024/01/12 03:57:09;;;;;;;1.80;1.10;;;;;;;-8.52;55.81;99023.21;109309;1254;72293;-26
2024/01/12 03:59:37;;;;;;;2.80;1.10;;;;;;;-8.83;56.55;99026.20;109315;1253;59253;-26
2024/01/12 04:02:04;;;;;;;5.30;1.20;;;;;;;-9.06;57.21;99027.95;109224;1254;59954;-26
2024/01/12 04:04:32;;;;;;;2.80;1.10;;;;;;;-9.35;57.89;99026.31;109332;1254;73956;-26
2024/01/12 04:07:00;;;;;;;1.50;1.00;;;;;;;-9.48;58.54;99031.38;109228;1253;75464;-26
2024/01/12 04:09:27;;;;;;;1.10;1.00;;;;;;;-8.96;57.48;99036.98;109307;1258;70823;-26
2024/01/12 04:11:55;;;;;;;1.20;0.80;;;;;;;-8.47;55.82;99039.70;109320;1254;58949;-27
2024/01/12 04:14:22;;;;;;;1.90;1.10;;;;;;;-8.12;54.59;99037.65;109387;1254;58797;-27
2024/01/12 04:16:50;;;;;;;1.30;1.10;;;;;;;-8.02;53.96;99039.95;109231;1254;72061;-26
2024/01/12 04:19:17;;;;;;;3.20;1.30;;;;;;;-8.50;54.78;99041.89;109315;1253;74300;-26
2024/01/12 04:21:44;;;;;;;0.60;0.50;;;;;;;-8.64;55.57;99047.52;109338;1253;71388;-26
2024/01/12 04:24:12;;;;;;;1.50;0.90;;;;;;;-8.87;56.23;99053.82;109291;1255;58856;-26
2024/01/12 04:26:39;;;;;;;1.10;0.70;;;;;;;-8.93;56.50;99056.70;109084;1257;58721;-26
2024/01/12 04:29:07;;;;;;;0.60;0.60;;;;;;;-8.31;54.96;99056.27;109224;1257;72618;-27
2024/01/12 04:31:39;;;;;;;3.20;1.90;;;;;;;-8.02;54.19;99061.52;109204;1257;74281;-27
2024/01/12 04:34:07;;;;;;;3.30;1.30;;;;;;;-8.32;54.39;99062.86;109092;1255;72662;-26
2024/01/12 04:36:35;;;;;;;2.30;1.20;;;;;;;-8.68;55.60;99062.35;109189;1260;58788;-26
2024/01/12 04:39:02;;;;;;;3.90;1.20;;;;;;;-9.11;56.45;99064.98;109206;1256;59990;-26
2024/01/12 04:41:30;;;;;;;1.10;0.70;;;;;;;-9.49;57.59;99061.30;109075;1257;72558;-27
2024/01/12 04:43:58;;;;;;;0.40;0.40;;;;;;;-9.70;58.34;99060.45;109197;1255;73334;-26
2024/01/12 04:46:25;;;;;;;1.70;0.80;;;;;;;-9.16;57.30;99063.12;109186;1257;72492;-26
2024/01/12 04:48:53;;;;;;;1.30;0.70;;;;;;;-8.87;56.12;99070.81;109179;1255;58951;-27
2024/01/12 04:51:20;;;;;;;2.50;1.10;;;;;;;-8.79;56.01;99073.65;109205;1258;60029;-26
2024/01/12 04:53:48;;;;;;;0.90;0.70;;;;;;;-9.02;56.18;99074.71;109102;1256;72564;-26
2024/01/12 04:56:16;;;;;;;1.70;0.90;;;;;;;-9.23;56.74;99077.77;109199;1255;73100;-27
2024/01/12 04:58:43;;;;;;;2.40;1.30;;;;;;;-9.50;57.51;99084.99;109180;1257;72656;-26
2024/01/12 05:01:11;;;;;;;0.70;0.70;;;;;;;-9.76;58.46;99091.71;109166;1257;59638;-26
2024/01/12 05:03:41;;;;;;;2.60;1.30;;;;;;;-9.38;57.26;99101.14;109138;1256;58744;-26
2024/01/12 05:06:09;;;;;;;1.30;0.90;;;;;;;-8.99;55.94;99104.66;109112;1255;72627;-26
2024/01/12 05:08:37;;;;;;;1.80;0.80;;;;;;;-9.00;55.55;99104.83;109078;1256;74367;-26
2024/01/12 05:11:05;;;;;;;1.50;1.00;;;;;;;-9.29;56.40;99102.99;109192;1257;71394;-27
2024/01/12 05:13:32;;;;;;;2.20;1.10;;;;;;;-9.65;57.09;99103.64;109168;1257;58868;-26
2024/01/12 05:15:59;;;;;;;1.40;0.90;;;;;;;-10.01;57.93;99109.60;109176;1257;58626;-26
2024/01/12 05:18:27;;;;;;;0.60;0.60;;;;;;;-10.18;58.96;99117.27;109210;1255;73816;-26
2024/01/12 05:20:55;;;;;;;1.60;0.70;;;;;;;-9.58;57.55;99122.46;109210;1256;74300;-28
2024/01/12 05:23:22;;;;;;;1.10;0.90;;;;;;;-9.11;56.07;99127.05;109217;1254;72703;-27
2024/01/12 05:25:50;;;;;;;1.10;1.00;;;;;;;-9.07;55.92;99124.00;109181;1254;59160;-27
2024/01/12 05:28:17;;;;;;;3.20;0.90;;;;;;;-9.48;56.96;99121.30;109187;1254;60050;-26
2024/01/12 05:30:45;;;;;;;1.90;1.20;;;;;;;-9.89;57.80;99123.76;109221;1254;73784;-26
2024/01/12 05:33:13;;;;;;;2.70;1.10;;;;;;;-10.19;58.44;99129.88;109220;1254;74300;-26
2024/01/12 05:35:43;;;;;;;0.70;0.70;;;;;;;-10.01;59.10;99131.78;109293;1258;73086;-27
2024/01/12 05:38:10;;;;;;;1.30;1.10;;;;;;;-9.19;57.51;99138.97;109242;1257;59679;-27
2024/01/12 05:40:38;;;;;;;1.00;0.70;;;;;;;-8.98;56.47;99146.37;109300;1254;59974;-27
2024/01/12 05:43:05;;;;;;;0.70;0.70;;;;;;;-9.04;56.22;99142.52;109209;1254;73801;-26
2024/01/12 05:45:33;;;;;;;3.10;1.10;;;;;;;-9.34;56.55;99138.96;109251;1254;73124;-26
2024/01/12 05:48:00;;;;;;;0.50;0.50;;;;;;;-9.87;57.39;99145.41;109280;1254;71187;-26
2024/01/12 05:50:29;;;;;;;0.80;0.50;;;;;;;-10.42;58.93;99143.55;109325;1254;61721;-28
2024/01/12 05:52:56;;;;;;;1.00;0.60;;;;;;;-10.25;59.49;99145.65;109407;1254;60074;-29
2024/01/12 05:55:24;;;;;;;1.50;0.90;;;;;;;-9.57;58.06;99143.15;109183;1254;73772;-29
2024/01/12 05:57:51;;;;;;;0.80;0.70;;;;;;;-9.59;58.22;99145.16;109358;1254;73006;-29
2024/01/12 06:00:19;;;;;;;1.60;1.20;;;;;;;-9.63;57.72;99144.14;109194;1254;70049;-29
2024/01/12 06:02:47;;;;;;;4.10;1.50;;;;;;;-10.04;60.14;99146.39;109324;1256;60153;-29
2024/01/12 06:05:14;;;;;;;2.00;1.20;;;;;;;-10.26;60.86;99147.65;109342;1254;59983;-29
2024/01/12 06:07:43;;;;;;;0.70;0.60;;;;;;;-10.36;61.55;99146.27;109193;1254;72573;-29
2024/01/12 06:10:12;;;;;;;3.00;1.00;;;;;;;-9.71;60.01;99152.70;109155;1254;74465;-29
2024/01/12 06:12:40;;;;;;;1.20;0.80;;;;;;;-9.16;57.66;99154.11;109327;1254;71701;-26
2024/01/12 06:15:07;;;;;;;0.80;0.60;;;;;;;-9.31;57.61;99151.59;109337;1254;58778;-26
2024/01/12 06:17:35;;;;;;;2.50;1.50;;;;;;;-9.51;57.95;99151.40;109367;1254;59200;-26
2024/01/12 06:20:03;;;;;;;2.80;1.50;;;;;;;-9.97;59.24;99153.96;109348;1254;73789;-26
2024/01/12 06:22:31;;;;;;;5.00;1.30;;;;;;;-10.43;60.82;99152.10;109146;1254;74279;-26
2024/01/12 06:25:00;;;;;;;4.00;1.60;;;;;;;-10.31;61.09;99158.38;109116;1255;71345;-26
2024/01/12 06:27:30;;;;;;;4.10;1.90;;;;;;;-9.51;59.60;99159.13;109067;1257;59291;-27
2024/01/12 06:30:00;;;;;;;7.70;2.20;;;;;;;-9.22;58.35;99161.02;109102;1257;60018;-27
2024/01/12 06:32:30;;;;;;;6.90;2.40;;;;;;;-9.30;58.43;99163.20;109121;1257;72562;-26
2024/01/12 06:35:01;;;;;;;4.80;3.20;;;;;;;-9.71;58.83;99166.30;109137;1257;74338;-26
2024/01/12 06:37:31;;;;;;;6.40;1.80;;;;;;;-9.86;59.87;99170.13;109100;1257;70381;-26
2024/01/12 06:40:01;;;;;;;4.60;2.60;;;;;;;-10.13;60.15;99172.21;109004;1257;60081;-26
2024/01/12 06:42:31;;;;;;;2.80;1.70;;;;;;;-10.24;61.14;99173.02;109068;1259;59118;-26
2024/01/12 06:45:03;;;;;;;4.90;2.90;;;;;;;-9.69;60.09;99175.39;109068;1257;73912;-26
2024/01/12 06:47:34;;;;;;;3.40;2.20;;;;;;;-9.19;58.48;99174.46;109119;1257;74291;-27
2024/01/12 06:50:05;;;;;;;7.90;4.30;;;;;;;-9.00;57.24;99175.83;109036;1257;72955;-26
2024/01/12 06:52:35;;;;;;;12.40;5.10;;;;;;;-9.39;58.06;99177.30;109004;1257;58737;-27
2024/01/12 06:55:05;;;;;;;17.20;6.70;;;;;;;-9.59;58.88;99178.45;108985;1256;60222;-26
2024/01/12 06:57:36;;;;;;;18.60;7.60;;;;;;;-9.78;59.49;99175.55;109035;1256;73857;-26
2024/01/12 07:00:06;;;;;;;15.70;7.70;;;;;;;-9.99;60.45;99176.64;109046;1256;74513;-26
2024/01/12 07:02:35;;;;;;;7.60;2.50;;;;;;;-9.95;60.74;99177.16;109109;1256;72848;-26
2024/01/12 07:05:06;;;;;;;10.60;4.40;;;;;;;-9.12;59.09;99175.14;109118;1256;60174;-27
2024/01/12 07:07:37;;;;;;;11.70;5.60;;;;;;;-8.72;57.08;99183.20;109109;1256;59585;-26
2024/01/12 07:10:08;;;;;;;12.40;5.50;;;;;;;-8.62;56.55;99188.77;109130;1256;72674;-27
2024/01/12 07:12:39;;;;;;;7.30;3.70;;;;;;;-8.66;56.86;99187.77;109014;1257;75481;-27
2024/01/12 07:15:09;;;;;;;8.70;3.30;;;;;;;-8.81;56.84;99193.15;109033;1256;72792;-26
2024/01/12 07:17:40;;;;;;;4.30;2.40;;;;;;;-9.00;57.08;99192.15;109005;1257;62120;-27
2024/01/12 07:20:10;;;;;;;2.90;1.80;;;;;;;-9.20;57.77;99195.16;109136;1257;59987;-26
2024/01/12 07:22:41;;;;;;;2.00;1.60;;;;;;;-9.20;58.05;99195.51;109127;1257;73931;-26
2024/01/12 07:32:40;;;;;;;4.70;2.00;;;;;;;-9.34;59.02;99191.94;103129;1286;600211;-28
2024/01/12 07:35:09;;;;;;;5.00;2.00;;;;;;;-9.37;58.88;99188.41;104822;1263;61217;-28
2024/01/12 07:45:16;;;;;;;4.90;2.70;;;;;;;-9.63;60.10;99190.69;102686;1295;599208;-28
2024/01/12 07:47:44;;;;;;;6.80;2.40;;;;;;;-9.49;59.76;99193.27;104151;1272;1002799;-28
2024/01/12 07:50:11;;;;;;;4.40;2.80;;;;;;;-9.42;59.95;99197.81;105110;1270;61099;-28
2024/01/12 07:52:39;;;;;;;8.50;3.30;;;;;;;-8.68;58.11;99201.20;104838;1271;72187;-28
2024/01/12 07:55:07;;;;;;;7.60;2.80;;;;;;;-8.45;57.00;99199.84;104915;1264;74294;-28
2024/01/12 07:57:35;;;;;;;6.30;2.50;;;;;;;-8.42;56.92;99191.58;104892;1264;72675;-29
2024/01/12 08:00:04;;;;;;;3.50;2.60;;;;;;;-8.83;58.03;99193.66;104947;1268;179233;-28
2024/01/12 08:02:38;;;;;;;5.40;3.00;;;;;;;-8.28;56.59;99197.42;109316;1251;58799;-26
2024/01/12 08:05:06;;;;;;;7.50;3.20;;;;;;;-8.33;56.78;99197.77;109656;1251;74433;-26
2024/01/12 08:07:35;;;;;;;6.90;2.50;;;;;;;-8.41;56.50;99198.63;109227;1251;75929;-26
2024/01/12 08:10:06;;;;;;;4.90;1.70;;;;;;;-8.42;56.77;99196.45;109400;1251;73045;-27
2024/01/12 08:12:35;;;;;;;15.90;4.40;;;;;;;-8.62;57.00;99191.11;109276;1250;60493;-27
2024/01/12 08:15:02;;;;;;;6.40;2.50;;;;;;;-8.60;57.33;99200.19;109488;1251;61140;-27
2024/01/12 08:17:30;;;;;;;4.20;1.90;;;;;;;-8.85;57.85;99199.21;109626;1251;75262;-26
2024/01/12 08:19:58;;;;;;;3.50;2.00;;;;;;;-8.85;58.14;99204.92;109678;1251;75241;-26
2024/01/12 08:22:25;;;;;;;2.80;1.20;;;;;;;-8.89;58.57;99209.80;109616;1251;71789;-27
2024/01/12 08:24:53;;;;;;;10.30;2.30;;;;;;;-9.10;58.82;99216.87;109497;1251;60481;-26
2024/01/12 08:27:20;;;;;;;2.60;1.50;;;;;;;-8.98;58.79;99212.00;109548;1251;59997;-27
2024/01/12 08:29:48;;;;;;;5.80;1.90;;;;;;;-9.07;59.05;99221.08;109545;1251;75054;-26
2024/01/12 08:32:15;;;;;;;2.70;1.50;;;;;;;-8.79;58.76;99225.98;106384;1251;1014623;-26
2024/01/12 08:34:43;;;;;;;2.00;1.40;;;;;;;-8.55;57.91;99227.12;109511;1251;58736;-30
2024/01/12 08:37:11;;;;;;;1.00;0.90;;;;;;;-8.64;58.02;99237.58;109416;1251;58866;-26
2024/01/12 08:39:38;;;;;;;2.20;1.30;;;;;;;-8.41;57.38;99244.27;109555;1251;58791;-26
2024/01/12 08:42:06;;;;;;;3.10;1.50;;;;;;;-8.34;57.28;99245.28;109431;1251;71753;-26
2024/01/12 08:44:34;;;;;;;3.30;1.80;;;;;;;-8.33;57.19;99244.42;109518;1251;74297;-26
2024/01/12 08:47:01;;;;;;;4.10;2.00;;;;;;;-8.66;58.18;99245.49;109497;1254;73987;-26
2024/01/12 08:49:28;;;;;;;4.20;2.10;;;;;;;-8.67;58.45;99249.20;109501;1251;62388;-27
2024/01/12 08:51:56;;;;;;;6.40;3.20;;;;;;;-8.29;57.49;99258.90;109523;1254;61989;-26
2024/01/12 08:54:24;;;;;;;9.80;4.50;;;;;;;-8.44;57.95;99260.11;109522;1251;73065;-26
2024/01/12 08:56:51;;;;;;;4.10;2.30;;;;;;;-8.40;57.91;99258.59;109405;1251;74295;-26
2024/01/12 08:59:20;;;;;;;2.70;2.00;;;;;;;-7.82;56.60;99261.83;109483;1251;74513;-26
2024/01/12 09:01:48;;;;;;;7.00;2.40;;;;;;;-7.37;54.96;99265.86;109463;1254;62042;-29
2024/01/12 09:04:16;;;;;;;1.30;1.10;;;;;;;-7.81;56.03;99263.34;109527;1251;58815;-27
2024/01/12 09:06:43;;;;;;;2.10;1.40;;;;;;;-7.62;56.05;99267.33;109528;1251;74619;-26
2024/01/12 09:09:11;;;;;;;2.40;1.40;;;;;;;-7.28;55.46;99264.13;109616;1251;74308;-26
2024/01/12 09:11:38;;;;;;;6.00;1.50;;;;;;;-7.10;54.58;99265.38;109483;1251;72660;-26
2024/01/12 09:14:06;;;;;;;1.00;0.90;;;;;;;-6.85;54.22;99261.66;109492;1251;58865;-26
2024/01/12 09:16:36;;;;;;;2.30;0.90;;;;;;;-6.48;52.82;99259.19;109512;1251;60974;-27
2024/01/12 09:19:04;;;;;;;2.40;1.50;;;;;;;-6.52;52.90;99258.87;109485;1251;72362;-26
2024/01/12 09:21:32;;;;;;;1.60;0.90;;;;;;;-6.66;52.89;99261.35;109519;1251;76488;-27
2024/01/12 09:23:59;;;;;;;1.10;0.80;;;;;;;-6.73;53.33;99254.66;109505;1253;72653;-27
2024/01/12 09:26:27;;;;;;;2.50;1.60;;;;;;;-6.56;53.01;99254.36;109568;1253;58778;-26
2024/01/12 09:28:54;;;;;;;2.00;1.20;;;;;;;-6.33;52.35;99255.68;109601;1253;58702;-30
2024/01/12 09:31:22;;;;;;;6.00;1.00;;;;;;;-6.10;51.85;99253.59;109600;1252;73018;-27
2024/01/12 09:33:51;;;;;;;1.50;1.30;;;;;;;-6.08;51.51;99251.72;109611;1252;74282;-26
2024/01/12 09:36:19;;;;;;;3.00;1.30;;;;;;;-6.21;52.06;99250.99;109570;1253;72608;-26
2024/01/12 09:38:46;;;;;;;3.70;1.30;;;;;;;-6.34;51.97;99241.33;109564;1252;60349;-26
2024/01/12 09:41:14;;;;;;;2.50;1.00;;;;;;;-6.09;51.51;99238.54;109586;1253;62171;-26
2024/01/12 09:43:42;;;;;;;2.20;1.40;;;;;;;-6.48;51.86;99231.82;109427;1253;73055;-27
2024/01/12 09:46:09;;;;;;;1.30;1.10;;;;;;;-6.73;53.10;99232.87;109478;1252;74328;-26
2024/01/12 09:48:37;;;;;;;3.00;1.20;;;;;;;-6.78;53.60;99236.13;108648;1254;1002190;-27
2024/01/12 09:51:05;;;;;;;1.70;0.80;;;;;;;-7.04;54.11;99237.48;109526;1253;60982;-26
2024/01/12 09:53:33;;;;;;;1.60;0.80;;;;;;;-6.68;53.44;99239.26;109439;1252;58865;-26
2024/01/12 09:56:01;;;;;;;2.80;1.60;;;;;;;-6.75;54.13;99233.91;109439;1253;72035;-27
2024/01/12 09:58:37;;;;;;;3.20;1.40;;;;;;;-6.62;53.98;99237.68;109569;1253;76097;-26
2024/01/12 10:01:04;;;;;;;0.80;0.70;;;;;;;-6.84;54.15;99238.19;109147;1252;74890;-26
2024/01/12 10:03:32;;;;;;;4.20;1.60;;;;;;;-6.69;54.42;99243.31;109418;1253;60162;-26
2024/01/12 10:06:00;;;;;;;1.30;0.90;;;;;;;-6.82;54.71;99238.02;109593;1253;62232;-26
2024/01/12 10:08:37;;;;;;;2.60;1.50;;;;;;;-6.79;54.62;99234.11;109496;1253;73006;-26
2024/01/12 10:11:05;;;;;;;2.70;1.60;;;;;;;-6.76;54.83;99235.27;109390;1253;74367;-26
2024/01/12 10:13:32;;;;;;;2.10;1.60;;;;;;;-7.12;55.82;99236.87;109572;1253;74891;-26
2024/01/12 10:16:01;;;;;;;2.90;1.40;;;;;;;-6.96;55.24;99238.95;109573;1253;58837;-26
2024/01/12 10:18:29;;;;;;;3.50;2.00;;;;;;;-6.79;55.25;99238.50;109448;1252;60024;-26
2024/01/12 10:21:00;;;;;;;4.60;1.40;;;;;;;-6.97;55.31;99230.17;109614;1252;73085;-27
2024/01/12 10:23:28;;;;;;;1.90;1.40;;;;;;;-6.87;55.33;99228.09;109606;1253;73575;-26
2024/01/12 10:25:57;;;;;;;3.30;1.60;;;;;;;-7.02;55.42;99230.40;109362;1256;71164;-26
2024/01/12 10:28:27;;;;;;;2.70;1.60;;;;;;;-7.37;56.06;99218.96;109397;1252;58811;-26
2024/01/12 10:30:55;;;;;;;3.30;2.10;;;;;;;-7.31;56.37;99219.95;109482;1253;59712;-26
2024/01/12 10:33:23;;;;;;;4.40;1.50;;;;;;;-7.26;55.92;99218.73;109457;1253;75256;-26
2024/01/12 10:36:18;;;;;;;1.80;1.20;;;;;;;-7.37;55.94;99210.88;109259;1253;74293;-28
2024/01/12 10:38:46;;;;;;;3.30;1.90;;;;;;;-7.23;56.01;99216.19;109492;1252;71230;-26
2024/01/12 10:41:13;;;;;;;2.50;1.40;;;;;;;-7.66;56.84;99217.92;109297;1254;61549;-26
2024/01/12 10:43:41;;;;;;;1.70;1.40;;;;;;;-7.60;57.46;99217.91;109269;1252;60459;-26
2024/01/12 10:46:12;;;;;;;2.10;1.00;;;;;;;-7.55;56.84;99216.36;109224;1253;72812;-27
2024/01/12 10:48:45;;;;;;;1.70;1.10;;;;;;;-7.55;56.43;99215.69;109423;1252;73876;-26
2024/01/12 10:51:13;;;;;;;1.70;1.10;;;;;;;-7.85;58.23;99213.46;109218;1252;75108;-26
2024/01/12 10:53:54;;;;;;;2.70;1.50;;;;;;;-7.50;57.52;99215.31;109462;1253;61709;-26
2024/01/12 10:56:21;;;;;;;2.30;0.90;;;;;;;-7.07;55.51;99217.09;109375;1253;60367;-26
2024/01/12 10:58:49;;;;;;;1.30;1.20;;;;;;;-6.97;55.15;99208.58;109251;1252;73039;-27
2024/01/12 11:01:16;;;;;;;1.70;1.00;;;;;;;-6.82;55.00;99218.59;109427;1252;74979;-27
2024/01/12 11:03:44;;;;;;;3.80;1.40;;;;;;;-6.75;54.97;99217.70;109206;1253;72625;-27
2024/01/12 11:06:12;;;;;;;1.20;0.90;;;;;;;-7.07;55.72;99216.41;109455;1252;59263;-26
2024/01/12 11:08:40;;;;;;;2.10;1.40;;;;;;;-7.23;56.31;99218.05;109209;1252;59090;-29
2024/01/12 11:11:08;;;;;;;3.00;1.00;;;;;;;-7.09;56.35;99210.70;109450;1252;75260;-29
2024/01/12 11:13:36;;;;;;;2.40;1.30;;;;;;;-7.30;56.25;99202.73;109413;1252;74569;-29
2024/01/12 11:16:04;;;;;;;2.80;1.50;;;;;;;-7.24;56.51;99196.45;109455;1253;70774;-28
2024/01/12 11:18:33;;;;;;;1.70;1.00;;;;;;;-7.07;55.87;99191.10;109368;1254;62273;-28
2024/01/12 11:21:02;;;;;;;1.50;1.10;;;;;;;-7.17;55.96;99179.52;109343;1253;58713;-28
2024/01/12 11:23:37;;;;;;;3.50;1.00;;;;;;;-6.81;54.95;99180.43;109452;1253;74951;-29
2024/01/12 11:26:05;;;;;;;1.80;1.10;;;;;;;-6.84;54.86;99170.82;109354;1253;75383;-29
2024/01/12 11:28:37;;;;;;;4.10;1.40;;;;;;;-6.93;55.31;99166.67;109344;1253;74159;-28
2024/01/12 11:31:05;;;;;;;1.50;1.20;;;;;;;-7.10;55.48;99163.27;109150;1254;59116;-28
2024/01/12 11:33:45;;;;;;;2.00;1.40;;;;;;;-7.08;55.74;99165.11;109206;1253;58805;-28
2024/01/12 11:36:15;;;;;;;2.60;1.20;;;;;;;-6.97;55.39;99163.51;109151;1254;74270;-28
2024/01/12 11:38:48;;;;;;;;;;;;;;;-6.85;55.82;99161.89;109362;1253;72624;-28
2024/01/12 11:41:16;;;;;;;1.60;1.20;;;;;;;-6.82;55.63;99157.63;109173;1253;71122;-29
2024/01/12 11:43:47;;;;;;;1.30;1.10;;;;;;;-7.02;55.69;99153.41;109345;1255;58930;-26